createdAt,value
2022-09-17T00:01:25.215Z,28.52
2022-09-17T00:03:57.409Z,31.63
2022-09-17T00:06:25.296Z,34.53
2022-09-17T00:08:53.994Z,31.38
2022-09-17T00:11:28.388Z,35.92
2022-09-17T00:13:56.344Z,43.83
2022-09-17T00:16:28.870Z,31.75
2022-09-17T00:18:56.676Z,43.38
2022-09-17T00:21:24.331Z,31.10
2022-09-17T00:23:56.612Z,25.40
2022-09-17T00:26:24.274Z,32.97
2022-09-17T00:28:52.898Z,36.63
2022-09-17T00:31:21.242Z,33.55
2022-09-17T00:33:49.033Z,36.53
2022-09-17T00:36:16.744Z,33.08
2022-09-17T00:38:44.334Z,37.17
2022-09-17T00:41:12.290Z,56.10
2022-09-17T00:43:46.047Z,32.10
2022-09-17T00:46:20.110Z,43.38
2022-09-17T00:48:48.477Z,37.58
2022-09-17T00:51:18.669Z,53.22
2022-09-17T00:53:46.756Z,38.63
2022-09-17T00:56:23.163Z,40.35
2022-09-17T00:58:51.636Z,75.60
2022-09-17T01:01:19.356Z,44.45
2022-09-17T01:03:46.941Z,40.08
2022-09-17T01:06:23.429Z,70.20
2022-09-17T01:09:00.655Z,64.75
2022-09-17T01:11:40.195Z,70.22
2022-09-17T01:14:10.662Z,65.90
2022-09-17T01:16:44.715Z,41.20
2022-09-17T01:19:37.005Z,79.07
2022-09-17T01:22:09.004Z,60.28
2022-09-17T01:24:49.143Z,57.85
2022-09-17T01:27:48.145Z,38.40
2022-09-17T01:30:40.176Z,39.53
2022-09-17T01:33:15.877Z,39.17
2022-09-17T01:35:53.532Z,41.42
2022-09-17T01:38:24.175Z,37.85
2022-09-17T01:41:07.977Z,46.42
2022-09-17T01:43:50.227Z,56.97
2022-09-17T01:46:23.118Z,54.13
2022-09-17T01:48:52.234Z,50.10
2022-09-17T01:51:22.980Z,43.83
2022-09-17T01:53:58.051Z,46.97
2022-09-17T01:56:28.461Z,45.03
2022-09-17T01:59:03.557Z,33.28
2022-09-17T02:01:32.871Z,31.55
2022-09-17T02:04:06.959Z,32.13
2022-09-17T02:09:22.798Z,29.02
2022-09-17T02:11:55.809Z,22.88
2022-09-17T02:14:29.221Z,22.55
2022-09-17T02:17:00.918Z,22.17
2022-09-17T02:19:29.360Z,23.77
2022-09-17T02:22:04.321Z,21.50
2022-09-17T02:24:53.095Z,25.00
2022-09-17T02:27:32.718Z,29.70
2022-09-17T02:30:00.282Z,26.20
2022-09-17T02:32:27.836Z,20.65
2022-09-17T02:34:55.382Z,24.20
2022-09-17T02:37:22.965Z,18.63
2022-09-17T02:39:50.592Z,21.65
2022-09-17T02:42:54.152Z,23.95
2022-09-17T02:45:36.901Z,24.92
2022-09-17T02:48:46.171Z,22.42
2022-09-17T02:51:40.438Z,20.58
2022-09-17T02:54:18.915Z,20.70
2022-09-17T02:57:09.148Z,22.80
2022-09-17T02:59:52.693Z,21.08
2022-09-17T03:02:45.421Z,26.98
2022-09-17T03:05:13.580Z,26.63
2022-09-17T03:07:41.958Z,34.17
2022-09-17T03:10:09.834Z,27.17
2022-09-17T03:12:41.196Z,22.17
2022-09-17T03:15:09.121Z,19.52
2022-09-17T03:17:37.448Z,21.90
2022-09-17T03:20:05.826Z,24.08
2022-09-17T03:22:33.440Z,24.13
2022-09-17T03:25:01.016Z,29.15
2022-09-17T03:27:28.518Z,31.25
2022-09-17T03:29:56.254Z,22.25
2022-09-17T03:32:23.840Z,23.98
2022-09-17T03:34:51.824Z,24.98
2022-09-17T03:37:19.452Z,29.98
2022-09-17T03:39:47.158Z,33.22
2022-09-17T03:42:14.821Z,28.52
2022-09-17T03:44:45.328Z,29.30
2022-09-17T03:47:13.166Z,28.15
2022-09-17T03:49:40.799Z,24.83
2022-09-17T03:52:08.470Z,26.55
2022-09-17T03:54:36.667Z,23.77
2022-09-17T03:57:04.377Z,30.08
2022-09-17T03:59:32.119Z,27.90
2022-09-17T04:01:59.734Z,29.60
2022-09-17T04:04:27.420Z,34.03
2022-09-17T04:06:55.178Z,33.13
2022-09-17T04:09:26.886Z,35.15
2022-09-17T04:11:55.030Z,38.53
2022-09-17T04:14:22.645Z,33.25
2022-09-17T04:16:50.203Z,29.67
2022-09-17T04:19:18.749Z,29.55
2022-09-17T04:21:46.412Z,28.27
2022-09-17T04:24:13.988Z,27.25
2022-09-17T04:26:41.967Z,29.00
2022-09-17T04:29:10.274Z,28.63
2022-09-17T04:31:38.469Z,32.70
2022-09-17T04:34:06.342Z,31.52
2022-09-17T04:36:33.953Z,29.63
2022-09-17T04:39:01.470Z,32.92
2022-09-17T04:41:29.126Z,42.90
2022-09-17T04:43:56.685Z,43.97
2022-09-17T04:46:24.372Z,47.70
2022-09-17T04:48:51.961Z,45.10
2022-09-17T04:51:19.523Z,40.35
2022-09-17T04:53:47.049Z,57.20
2022-09-17T04:56:14.623Z,58.78
2022-09-17T04:58:42.197Z,53.97
2022-09-17T05:01:14.006Z,55.42
2022-09-17T05:03:41.814Z,58.83
2022-09-17T05:06:09.405Z,51.38
2022-09-17T05:08:38.192Z,57.67
2022-09-17T05:11:05.720Z,55.25
2022-09-17T05:13:33.340Z,56.03
2022-09-17T05:16:00.891Z,51.88
2022-09-17T05:18:29.451Z,59.65
2022-09-17T05:20:57.005Z,57.92
2022-09-17T05:23:24.673Z,50.92
2022-09-17T05:25:53.176Z,61.55
2022-09-17T05:28:20.772Z,53.65
2022-09-17T05:30:48.268Z,57.28
2022-09-17T05:33:15.841Z,58.08
2022-09-17T05:35:44.798Z,67.90
2022-09-17T05:38:12.425Z,69.72
2022-09-17T05:40:40.374Z,67.38
2022-09-17T05:43:08.120Z,62.45
2022-09-17T05:45:37.704Z,60.00
2022-09-17T05:48:07.497Z,75.07
2022-09-17T05:50:35.746Z,70.40
2022-09-17T05:53:08.008Z,69.82
2022-09-17T05:55:36.317Z,77.88
2022-09-17T05:58:13.989Z,82.05
2022-09-17T06:00:41.994Z,89.97
2022-09-17T06:03:13.479Z,79.60
2022-09-17T06:05:41.357Z,98.57
2022-09-17T06:08:09.929Z,93.45
2022-09-17T06:10:38.711Z,100.90
2022-09-17T06:13:06.304Z,86.68
2022-09-17T06:15:34.384Z,101.30
2022-09-17T06:18:02.004Z,74.72
2022-09-17T06:20:29.676Z,64.78
2022-09-17T06:22:57.989Z,61.35
2022-09-17T06:25:26.575Z,60.10
2022-09-17T06:27:54.170Z,52.53
2022-09-17T06:30:21.677Z,49.45
2022-09-17T06:32:49.959Z,54.13
2022-09-17T06:35:20.373Z,44.10
2022-09-17T06:37:48.916Z,32.20
2022-09-17T06:40:16.542Z,34.22
2022-09-17T06:42:44.186Z,31.65
2022-09-17T06:45:15.956Z,33.95
2022-09-17T06:47:46.134Z,29.27
2022-09-17T06:50:13.814Z,29.77
2022-09-17T06:52:51.300Z,25.30
2022-09-17T06:55:18.986Z,29.88
2022-09-17T06:57:46.694Z,27.85
2022-09-17T07:00:14.972Z,30.08
2022-09-17T07:02:42.749Z,26.00
2022-09-17T07:05:11.511Z,29.60
2022-09-17T07:07:41.361Z,27.80
2022-09-17T07:10:09.176Z,28.55
2022-09-17T07:12:40.758Z,29.48
2022-09-17T07:15:11.513Z,27.77
2022-09-17T07:17:40.324Z,27.33
2022-09-17T07:20:08.688Z,29.13
2022-09-17T07:22:36.605Z,29.75
2022-09-17T07:25:06.135Z,30.92
2022-09-17T07:27:33.685Z,25.90
2022-09-17T07:30:01.172Z,28.02
2022-09-17T07:32:31.948Z,25.55
2022-09-17T07:34:59.496Z,21.98
2022-09-17T07:37:27.783Z,21.52
2022-09-17T07:39:55.773Z,21.70
2022-09-17T07:42:23.273Z,25.17
2022-09-17T07:44:51.006Z,23.85
2022-09-17T07:47:18.501Z,26.52
2022-09-17T07:49:46.685Z,30.60
2022-09-17T07:52:14.730Z,35.35
2022-09-17T07:54:42.603Z,36.95
2022-09-17T07:57:10.233Z,33.67
2022-09-17T07:59:37.839Z,36.78
2022-09-17T08:02:05.439Z,45.83
2022-09-17T08:04:33.057Z,45.20
2022-09-17T08:07:01.826Z,33.80
2022-09-17T08:09:29.716Z,34.15
2022-09-17T08:11:57.559Z,29.13
2022-09-17T08:14:29.507Z,23.27
2022-09-17T08:16:58.175Z,22.67
2022-09-17T08:19:25.740Z,26.60
2022-09-17T08:21:53.288Z,31.75
2022-09-17T08:24:21.076Z,29.95
2022-09-17T08:26:48.922Z,24.30
2022-09-17T08:29:16.615Z,25.23
2022-09-17T08:31:44.866Z,26.02
2022-09-17T08:34:12.405Z,25.08
2022-09-17T08:36:39.954Z,26.42
2022-09-17T08:39:08.273Z,39.65
2022-09-17T08:41:51.588Z,20.63
2022-09-17T08:44:34.594Z,32.83
2022-09-17T08:47:15.560Z,24.90
2022-09-17T08:49:58.988Z,21.02
2022-09-17T08:52:57.898Z,24.60
2022-09-17T08:55:34.066Z,28.38
2022-09-17T08:58:04.442Z,15.75
2022-09-17T09:01:02.043Z,13.55
2022-09-17T09:03:37.627Z,11.93
2022-09-17T09:06:10.881Z,14.35
2022-09-17T09:08:45.636Z,11.93
2022-09-17T09:11:26.375Z,13.00
2022-09-17T09:16:26.274Z,11.20
2022-09-17T09:19:13.360Z,11.13
2022-09-17T09:21:49.244Z,12.15
2022-09-17T09:24:24.276Z,10.52
2022-09-17T09:26:58.748Z,13.27
2022-09-17T09:29:54.232Z,19.90
2022-09-17T09:32:38.063Z,10.25
2022-09-17T09:35:15.665Z,11.98
2022-09-17T09:37:45.372Z,285.02
2022-09-17T09:40:37.882Z,83.18
2022-09-17T09:43:29.629Z,72.32
2022-09-17T09:46:21.576Z,12.93
2022-09-17T09:49:09.088Z,9.98
2022-09-17T09:52:01.205Z,13.02
2022-09-17T09:54:47.265Z,11.23
2022-09-17T09:57:16.424Z,10.15
2022-09-17T09:59:43.949Z,11.65
2022-09-17T10:02:11.712Z,14.07
2022-09-17T10:04:39.922Z,12.88
2022-09-17T10:07:11.385Z,12.48
2022-09-17T10:09:39.758Z,10.52
2022-09-17T10:12:11.032Z,10.32
2022-09-17T10:14:39.776Z,11.18
2022-09-17T10:17:14.227Z,11.18
2022-09-17T10:19:42.425Z,11.20
2022-09-17T10:22:22.263Z,19.15
2022-09-17T10:24:49.756Z,11.45
2022-09-17T10:27:19.247Z,12.05
2022-09-17T10:29:49.278Z,11.63
2022-09-17T10:32:20.510Z,14.50
2022-09-17T10:37:51.346Z,15.55
2022-09-17T10:40:18.935Z,17.10
2022-09-17T10:42:51.177Z,20.35
2022-09-17T10:45:28.994Z,30.30
2022-09-17T10:47:57.120Z,23.38
2022-09-17T10:50:31.696Z,25.05
2022-09-17T10:53:04.497Z,21.20
2022-09-17T10:55:38.364Z,22.00
2022-09-17T10:58:08.828Z,20.42
2022-09-17T11:00:59.240Z,23.17
2022-09-17T11:03:45.748Z,29.40
2022-09-17T11:06:25.481Z,32.10
2022-09-17T11:09:20.489Z,37.97
2022-09-17T11:12:00.900Z,35.17
2022-09-17T11:14:49.942Z,30.48
2022-09-17T11:17:41.931Z,29.27
2022-09-17T11:20:40.511Z,29.60
2022-09-17T11:23:32.884Z,34.92
2022-09-17T11:26:13.411Z,32.28
2022-09-17T11:28:59.226Z,38.27
2022-09-17T11:32:04.331Z,40.45
2022-09-17T11:34:35.135Z,82.07
2022-09-17T11:37:22.801Z,85.50
2022-09-17T11:39:55.413Z,86.88
2022-09-17T11:42:54.544Z,54.35
2022-09-17T11:45:29.809Z,34.22
2022-09-17T11:48:17.780Z,34.40
2022-09-17T11:51:13.895Z,28.42
2022-09-17T11:53:47.708Z,29.70
2022-09-17T11:56:23.274Z,26.42
2022-09-17T11:59:02.420Z,29.02
2022-09-17T12:01:49.789Z,27.70
2022-09-17T12:04:35.472Z,29.02
2022-09-17T12:07:38.840Z,27.80
2022-09-17T12:10:21.365Z,29.48
2022-09-17T12:13:00.536Z,28.05
2022-09-17T12:15:31.188Z,25.90
2022-09-17T12:18:33.042Z,27.70
2022-09-17T12:21:04.820Z,26.48
2022-09-17T12:23:42.640Z,29.90
2022-09-17T12:26:25.775Z,29.02
2022-09-17T12:29:08.236Z,31.17
2022-09-17T12:31:59.084Z,31.17
2022-09-17T12:34:33.910Z,28.70
2022-09-17T12:37:16.631Z,30.85
2022-09-17T12:39:58.726Z,29.95
2022-09-17T12:42:53.920Z,24.63
2022-09-17T12:45:48.573Z,26.52
2022-09-17T12:48:21.208Z,19.88
2022-09-17T12:51:10.031Z,22.88
2022-09-17T12:53:54.785Z,18.88
2022-09-17T12:56:50.207Z,19.40
2022-09-17T12:59:19.548Z,15.32
2022-09-17T13:01:56.331Z,14.23
2022-09-17T13:05:02.910Z,17.95
2022-09-17T13:07:46.168Z,18.30
2022-09-17T13:10:30.117Z,17.42
2022-09-17T13:13:22.559Z,16.88
2022-09-17T13:15:53.070Z,18.67
2022-09-17T13:18:27.675Z,19.40
2022-09-17T13:21:02.228Z,20.38
2022-09-17T13:23:46.061Z,23.23
2022-09-17T13:26:17.378Z,22.17
2022-09-17T13:28:47.434Z,22.98
2022-09-17T13:31:23.166Z,25.23
2022-09-17T13:34:15.031Z,23.45
2022-09-17T13:36:55.979Z,22.75
2022-09-17T13:39:43.856Z,22.17
2022-09-17T13:42:34.460Z,25.63
2022-09-17T13:45:16.299Z,25.60
2022-09-17T13:47:53.746Z,24.02
2022-09-17T13:50:42.009Z,24.90
2022-09-17T13:53:15.270Z,26.00
2022-09-17T13:55:46.089Z,26.58
2022-09-17T13:58:21.857Z,21.35
2022-09-17T14:01:04.620Z,21.77
2022-09-17T14:03:40.747Z,21.23
2022-09-17T14:06:08.713Z,23.33
2022-09-17T14:08:45.510Z,18.77
2022-09-17T14:11:29.354Z,16.55
2022-09-17T14:14:04.688Z,17.50
2022-09-17T14:16:40.615Z,14.90
2022-09-17T14:19:24.579Z,18.25
2022-09-17T14:21:57.531Z,17.77
2022-09-17T14:24:28.082Z,16.58
2022-09-17T14:27:05.901Z,18.13
2022-09-17T14:30:27.701Z,19.17
2022-09-17T14:33:01.394Z,20.02
2022-09-17T14:35:35.214Z,19.77
2022-09-17T14:38:14.245Z,21.15
2022-09-17T14:40:46.409Z,18.17
2022-09-17T14:43:22.449Z,20.77
2022-09-17T14:45:51.881Z,15.10
2022-09-17T14:48:30.229Z,15.32
2022-09-17T14:51:20.158Z,15.95
2022-09-17T14:53:49.769Z,12.63
2022-09-17T14:56:19.550Z,13.80
2022-09-17T14:58:49.078Z,14.07
2022-09-17T15:01:30.163Z,14.30
2022-09-17T15:04:12.961Z,12.48
2022-09-17T15:06:41.497Z,11.50
2022-09-17T15:09:25.772Z,12.15
2022-09-17T15:11:55.184Z,11.13
2022-09-17T15:14:24.198Z,13.57
2022-09-17T15:16:54.165Z,12.38
2022-09-17T15:19:34.089Z,12.70
2022-09-17T15:22:16.989Z,12.90
2022-09-17T15:24:48.022Z,15.88
2022-09-17T15:27:33.896Z,16.35
2022-09-17T15:30:06.610Z,13.40
2022-09-17T15:32:35.209Z,13.98
2022-09-17T15:35:11.749Z,13.35
2022-09-17T15:40:41.326Z,15.90
2022-09-17T15:43:28.429Z,15.88
2022-09-17T15:45:56.480Z,17.25
2022-09-17T15:48:28.129Z,17.65
2022-09-17T15:50:57.070Z,17.00
2022-09-17T15:53:28.759Z,23.85
2022-09-17T15:56:05.465Z,35.70
2022-09-17T15:58:42.657Z,30.33
2022-09-17T16:01:16.564Z,22.83
2022-09-17T16:03:44.522Z,19.58
2022-09-17T16:06:18.598Z,20.52
2022-09-17T16:08:47.707Z,26.23
2022-09-17T16:11:19.429Z,76.68
2022-09-17T16:13:48.163Z,71.70
2022-09-17T16:16:18.241Z,23.75
2022-09-17T16:18:46.048Z,42.15
2022-09-17T16:21:14.079Z,22.20
2022-09-17T16:23:41.758Z,23.15
2022-09-17T16:26:14.765Z,30.90
2022-09-17T16:28:42.580Z,22.08
2022-09-17T16:31:12.141Z,19.52
2022-09-17T16:33:40.011Z,24.17
2022-09-17T16:36:07.793Z,22.23
2022-09-17T16:38:36.057Z,25.23
2022-09-17T16:41:06.647Z,20.92
2022-09-17T16:43:35.669Z,21.92
2022-09-17T16:46:12.504Z,23.33
2022-09-17T16:48:41.292Z,21.00
2022-09-17T16:51:09.509Z,19.58
2022-09-17T16:53:37.610Z,24.10
2022-09-17T16:56:08.970Z,19.40
2022-09-17T16:58:37.286Z,21.13
2022-09-17T17:01:12.406Z,20.13
2022-09-17T17:03:40.147Z,21.95
2022-09-17T17:06:18.431Z,23.40
2022-09-17T17:08:45.942Z,20.80
2022-09-17T17:11:13.704Z,22.15
2022-09-17T17:13:44.616Z,24.70
2022-09-17T17:16:14.388Z,21.38
2022-09-17T17:18:45.221Z,24.55
2022-09-17T17:21:14.657Z,22.98
2022-09-17T17:23:47.234Z,23.00
2022-09-17T17:26:15.965Z,24.45
2022-09-17T17:28:43.517Z,25.90
2022-09-17T17:31:11.965Z,24.08
2022-09-17T17:33:40.556Z,23.77
2022-09-17T17:36:08.740Z,25.70
2022-09-17T17:38:36.869Z,27.83
2022-09-17T17:41:11.035Z,38.65
2022-09-17T17:43:38.581Z,36.92
2022-09-17T17:46:07.357Z,32.97
2022-09-17T17:48:35.950Z,34.60
2022-09-17T17:51:08.628Z,34.03
2022-09-17T17:53:36.639Z,31.95
2022-09-17T17:56:06.094Z,33.35
2022-09-17T17:58:34.217Z,32.28
2022-09-17T18:01:13.360Z,35.20
2022-09-17T18:03:41.029Z,29.88
2022-09-17T18:06:08.559Z,28.00
2022-09-17T18:08:40.085Z,35.60
2022-09-17T18:11:08.493Z,32.42
2022-09-17T18:13:37.212Z,35.53
2022-09-17T18:16:05.770Z,32.15
2022-09-17T18:18:44.131Z,31.23
2022-09-17T18:21:16.637Z,32.10
2022-09-17T18:23:44.222Z,34.63
2022-09-17T18:26:13.713Z,37.05
2022-09-17T18:28:41.325Z,50.55
2022-09-17T18:31:13.929Z,44.53
2022-09-17T18:33:41.828Z,54.95
2022-09-17T18:36:09.915Z,110.95
2022-09-17T18:38:40.888Z,45.40
2022-09-17T18:41:11.614Z,49.75
2022-09-17T18:43:40.203Z,56.38
2022-09-17T18:46:07.786Z,46.70
2022-09-17T18:48:36.665Z,44.85
2022-09-17T18:51:06.246Z,42.00
2022-09-17T18:53:36.312Z,45.13
2022-09-17T18:56:07.149Z,42.15
2022-09-17T18:58:35.557Z,38.25
2022-09-17T19:01:07.851Z,38.03
2022-09-17T19:03:35.397Z,36.47
2022-09-17T19:06:04.319Z,38.10
2022-09-17T19:08:32.230Z,39.28
2022-09-17T19:11:00.425Z,37.78
2022-09-17T19:13:32.989Z,37.92
2022-09-17T19:16:02.711Z,35.58
2022-09-17T19:18:30.446Z,34.13
2022-09-17T19:21:05.394Z,36.42
2022-09-17T19:23:34.390Z,34.70
2022-09-17T19:26:26.118Z,32.03
2022-09-17T19:28:54.388Z,34.00
2022-09-17T19:31:22.337Z,30.58
2022-09-17T19:33:50.667Z,31.15
2022-09-17T19:36:18.633Z,26.40
2022-09-17T19:38:46.347Z,26.92
2022-09-17T19:41:15.877Z,33.15
2022-09-17T19:43:43.488Z,30.70
2022-09-17T19:46:12.449Z,37.22
2022-09-17T19:48:48.017Z,35.17
2022-09-17T19:51:16.079Z,45.80
2022-09-17T19:53:43.988Z,50.33
2022-09-17T19:56:18.753Z,56.40
2022-09-17T19:58:46.752Z,57.60
2022-09-17T20:01:14.446Z,62.85
2022-09-17T20:03:43.340Z,67.65
2022-09-17T20:06:15.498Z,72.30
2022-09-17T20:08:50.604Z,73.63
2022-09-17T20:11:22.328Z,79.95
2022-09-17T20:16:21.508Z,80.72
2022-09-17T20:18:49.313Z,84.78
2022-09-17T20:21:21.550Z,89.82
2022-09-17T20:23:49.515Z,94.10
2022-09-17T20:26:17.163Z,88.47
2022-09-17T20:28:44.965Z,78.47
2022-09-17T20:31:14.304Z,75.55
2022-09-17T20:33:42.055Z,77.30
2022-09-17T20:36:16.701Z,73.90
2022-09-17T20:41:32.515Z,75.00
2022-09-17T20:44:00.139Z,73.00
2022-09-17T20:46:29.347Z,74.53
2022-09-17T20:48:58.319Z,76.82
2022-09-17T20:51:27.710Z,78.55
2022-09-17T20:53:57.463Z,81.13
2022-09-17T20:56:27.316Z,72.60
2022-09-17T20:59:08.602Z,69.72
2022-09-17T21:01:37.948Z,57.58
2022-09-17T21:04:07.069Z,57.70
2022-09-17T21:06:36.510Z,50.42
2022-09-17T21:09:06.423Z,53.20
2022-09-17T21:11:34.567Z,43.85
2022-09-17T21:14:02.160Z,44.42
2022-09-17T21:16:30.188Z,42.55
2022-09-17T21:18:58.757Z,41.80
2022-09-17T21:21:26.522Z,40.67
2022-09-17T21:23:54.157Z,41.70
2022-09-17T21:26:23.210Z,42.88
2022-09-17T21:28:51.679Z,40.17
2022-09-17T21:31:21.206Z,42.25
2022-09-17T21:33:51.060Z,36.47
2022-09-17T21:36:19.968Z,39.45
2022-09-17T21:38:54.075Z,34.30
2022-09-17T21:41:22.297Z,47.45
2022-09-17T21:43:51.914Z,38.60
2022-09-17T21:46:24.145Z,37.83
2022-09-17T21:48:53.899Z,39.03
2022-09-17T21:51:48.645Z,52.85
2022-09-17T21:54:17.158Z,41.28
2022-09-17T21:56:45.020Z,42.78
2022-09-17T21:59:14.225Z,49.47
2022-09-17T22:01:45.910Z,42.17
2022-09-17T22:04:15.410Z,51.10
2022-09-17T22:06:43.292Z,46.25
2022-09-17T22:09:30.439Z,51.33
2022-09-17T22:11:59.823Z,51.75
2022-09-17T22:14:27.321Z,49.78
2022-09-17T22:16:55.627Z,50.15
2022-09-17T22:19:23.955Z,56.83
2022-09-17T22:21:53.137Z,52.50
2022-09-17T22:24:21.295Z,55.53
2022-09-17T22:26:56.571Z,52.40
2022-09-17T22:29:25.665Z,51.72
2022-09-17T22:31:53.713Z,47.20
2022-09-17T22:34:22.428Z,48.35
2022-09-17T22:36:50.477Z,54.28
2022-09-17T22:39:20.740Z,52.08
2022-09-17T22:41:50.283Z,48.92
2022-09-17T22:44:19.134Z,47.80
2022-09-17T22:46:48.725Z,48.97
2022-09-17T22:49:16.477Z,39.97
2022-09-17T22:51:45.252Z,42.78
2022-09-17T22:54:13.958Z,41.33
2022-09-17T22:56:41.518Z,42.70
2022-09-17T22:59:09.208Z,36.45
2022-09-17T23:01:37.442Z,38.28
2022-09-17T23:04:05.485Z,32.95
2022-09-17T23:06:35.208Z,33.75
2022-09-17T23:09:02.937Z,25.75
2022-09-17T23:11:32.303Z,24.75
2022-09-17T23:14:02.387Z,29.35
2022-09-17T23:16:37.901Z,34.25
2022-09-17T23:19:05.588Z,30.77
2022-09-17T23:21:33.430Z,39.83
2022-09-17T23:24:01.173Z,32.75
2022-09-17T23:26:29.181Z,37.53
2022-09-17T23:29:00.008Z,42.25
2022-09-17T23:31:35.019Z,46.75
2022-09-17T23:34:03.539Z,50.22
2022-09-17T23:36:36.639Z,58.63
2022-09-17T23:39:04.712Z,76.45
2022-09-17T23:41:33.707Z,86.30
2022-09-17T23:44:02.669Z,83.70
2022-09-17T23:46:31.965Z,86.38
2022-09-17T23:48:59.930Z,65.55
2022-09-17T23:51:29.696Z,59.70
2022-09-17T23:53:57.500Z,63.10
2022-09-17T23:56:25.765Z,53.15
2022-09-17T23:58:54.454Z,55.05
